x

South Nomad (46036) Wave Buoy

6:00am - Wed 23rd Apr 2014 All times are UTC.

  • Sig Wave height 8.9ft
  • Peak Period 12s
  • Wind
    7mph, 9mph gusts
  • Sea Temp 48°f
  • Air Temp 47°f
  • Sea Pressure 1008.2mb

More Historic Weather Station data

Upgrade to MSW Pro to gain access to the past 30 days of data for over 8000 Wavebouys and Weather Stations around the globe.

Join Pro

Comparision Forecast

View Surf forecast
   
Wed 04/23 6:00am 9ft 12s 7 9 mph 1008.2mb 48f 47f
5:00am 9ft 11s 9 11 mph 1007.7mb 48f 48f
4:00am 9ft 11s 11 13 mph 1007mb 48f 47f
3:00am 10ft 12s 13 18 mph 1006.9mb 48f 47f
2:00am 10ft 11s 13 18 mph 1007mb 48f 48f
1:00am 11ft 11s 13 18 mph 1006.6mb 48f 48f
12:00am 11ft 12s 16 20 mph 1006.5mb 48f 47f
Tue 04/22 11:00pm 11.5ft 12s 16 20 mph 1006.5mb 48f 48f
10:00pm 11.5ft 11s 18 22 mph 1006.1mb 48f 47f
9:00pm 12ft 12s 18 22 mph 1005.5mb 48f 47f
8:00pm 13.5ft 12s 18 22 mph 1004.7mb 48f 47f
7:00pm 12ft 13s 20 25 mph 1004.3mb 48f 47f
6:00pm 12ft 12s 20 25 mph 1003.6mb 48f 47f
5:00pm 12.5ft 13s 20 27 mph 1002.7mb 48f 46f
4:00pm 14ft 13s 20 25 mph 1002.3mb 48f 46f
3:00pm 14.5ft 11s 18 22 mph 1002mb 48f 47f
2:00pm 13.5ft 13s 20 25 mph 1001.5mb 48f 47f
1:00pm 14ft 12s 18 22 mph 1001.6mb 48f 46f
12:00pm 15ft 13s 20 25 mph 1001.5mb 48f 47f
11:00am 14.5ft 12s 22 29 mph 1001.5mb 48f 47f
10:00am 14ft 12s 22 29 mph 1002mb 48f 46f
9:00am 13.5ft 14s 22 29 mph 1003mb 48f 47f
8:00am 13ft 11s 20 25 mph 1004mb 48f 47f
7:00am 14ft 13s 25 29 mph 1004.5mb 48f 48f
6:00am 14ft 12s 22 27 mph 1005.1mb 48f 48f
5:00am 13.5ft 14s 25 31 mph 1005.4mb 48f 47f
4:00am 13ft 12s 27 31 mph 1006mb 48f 46f
3:00am 13ft 12s 27 34 mph 1006.6mb 48f 46f
2:00am 11.5ft 12s 27 31 mph 1007.8mb 48f 46f
1:00am 11ft 12s 22 29 mph 1009mb 48f 46f
12:00am 12.5ft 12s 22 27 mph 1009.9mb 48f 48f
Mon 04/21 11:00pm 11.5ft 12s 22 27 mph 1011mb 48f 47f
10:00pm 13ft 12s 20 25 mph 1011.7mb 48f 47f
9:00pm 12.5ft 12s 18 22 mph 1012.4mb 48f 47f
8:00pm 11.5ft 12s 20 25 mph 1012.8mb 48f 47f
7:00pm 11ft 13s 18 22 mph 1013.1mb 48f 47f
6:00pm 11.5ft 13s 18 20 mph 1013.3mb 48f 47f
5:00pm 12.5ft 12s 16 20 mph 1013.4mb 48f 46f
4:00pm 13ft 13s 16 20 mph 1013.7mb 48f 46f
3:00pm 13.5ft 14s 11 25 mph 1013.8mb 48f 46f
2:00pm 14ft 14s 11 16 mph 1013.8mb 48f 46f
1:00pm 14ft 14s 13 16 mph 1014mb 48f 46f
12:00pm 15ft 11s 9 13 mph 1014.3mb 48f 46f
11:00am 14ft 12s 11 13 mph 1014.6mb 48f 46f
10:00am 15ft 14s 20 25 mph 1014.7mb 48f 45f
9:00am 12.5ft 12s 18 22 mph 1014.7mb 48f 46f
8:00am 15ft 14s 18 22 mph 1014.6mb 48f 46f
7:00am 14ft 13s 16 22 mph 1014.8mb 48f 45f
6:00am 16ft 13s 22 31 mph 1014.3mb 48f 46f
5:00am 15.5ft 13s 18 22 mph 1014.2mb 48f 46f
4:00am 16.5ft 13s 18 22 mph 1013.4mb 48f 46f
3:00am 17.5ft 12s 20 27 mph 1012.7mb 48f 46f
2:00am 18ft 14s 20 27 mph 1012.4mb 48f 47f
1:00am 17.5ft 12s 20 27 mph 1011.9mb 48f 46f
12:00am 18.5ft 14s 22 27 mph 1011.4mb 48f 47f
Sun 04/20 11:00pm 18ft 12s 25 29 mph 1010.8mb 48f 47f
8:00pm 19.5ft 14s 29 36 mph 1008.3mb 48f 45f
7:00pm 20ft 13s 31 36 mph 1007mb 48f 46f
6:00pm 19.5ft 14s 31 40 mph 1005.3mb 48f 46f
5:00pm 20ft 13s 36 45 mph 1003.1mb 48f 48f
4:00pm 18ft 14s 36 43 mph 1002.3mb 48f 47f
3:00pm 19ft 13s 31 38 mph 1002.3mb 48f 49f
2:00pm 18ft 14s 31 40 mph 1002.3mb 48f 49f
1:00pm 19.5ft 14s 25 29 mph 1002.6mb 48f 49f
12:00pm 22ft 14s 22 29 mph 1003.2mb 48f 49f
11:00am 21.5ft 14s 25 31 mph 1003.4mb 48f 49f
10:00am 22.5ft 14s 31 36 mph 1003.7mb 48f 49f
9:00am 22.5ft 14s 31 40 mph 1003.8mb 48f 49f
8:00am 24ft 15s 29 36 mph 1005.1mb 48f 49f
7:00am 24.5ft 15s 27 34 mph 1006.1mb 48f 49f
6:00am 24.5ft 15s 27 34 mph 1006.7mb 48f 49f
5:00am 26.5ft 16s 20 27 mph 1007.4mb 48f 49f
4:00am 26.5ft 16s 20 22 mph 1007.2mb 48f 49f
3:00am 27ft 16s 25 31 mph 1006.7mb 48f 49f
2:00am 29ft 16s 27 34 mph 1006.2mb 48f 49f
1:00am 28.5ft 16s 25 34 mph 1005.6mb 48f 49f
12:00am 29ft 17s 29 38 mph 1004.7mb 48f 49f
Sat 04/19 11:00pm 30ft 16s 31 40 mph 1003.7mb 48f 49f
10:00pm 32ft 17s 27 40 mph 1002.9mb 48f 48f
9:00pm 31ft 16s 36 45 mph 1001.3mb 48f 48f
8:00pm 28.5ft 17s 36 47 mph 999.6mb 48f 49f
6:00pm 31.5ft 16s 38 51 mph 996mb 48f 48f
5:00pm 29.5ft 14s 40 51 mph 993.8mb 48f 47f
4:00pm 26ft 14s 40 51 mph 991.9mb 48f 47f
3:00pm 25.5ft 16s 38 47 mph 990.1mb 48f 47f
2:00pm 22.5ft 12s 36 45 mph 988.3mb 48f 47f
1:00pm 20.5ft 12s 34 43 mph 986.9mb 48f 48f
12:00pm 20ft 11s 31 40 mph 986mb 48f 48f
11:00am 17.5ft 11s 31 40 mph 985.5mb 48f 48f
10:00am 16.5ft 11s 31 38 mph 985.5mb 48f 48f
9:00am 17ft 11s 29 38 mph 985.8mb 48f 49f
8:00am 15.5ft 10s 29 38 mph 986.3mb 48f 49f